Main page
METAR-TAF:

METAR-TAF

Airports :

Ballina Byron Gateway Airport

Ballina, Australia

latitude: 28-50-00S, longitude: 153-33-42E, elevation: 2 m

Current weather observation

The report was made 33 minutes ago, at 16:04 UTC
Wind 9 kt from the East/Northeast
Temperature 17°C
Humidity 94%
Pressure 1020 hPa
Visibility: 8000 m
Scattered clouds at a height of 1500 ft
Broken clouds at a height of 2300 ft
Overcast at a height of 2800 ft

METAR: YBNA 281604Z AUTO 06009KT 8000 // SCT015 BKN023 OVC028 17/16 Q1020

Time: 02:37 (16:37 UTC)


TAF: missing

Weather observations and forecasts of more than 4000 airports (METAR and TAF reports).

The available stations are represented by yellow and red dots on the map.

Hover mouse over dot to see the name of the station.

Then click to see weather observations and forecasts.

To change the map : click on the green buttons with a black cross to zoom in, on the green button with a dash to zoom out, or on the green arrows for adjacent maps.


METAR-TAF: